Terminal Aerodrome Forecast
Issued by NWS Duluth, MN

Home | Current Version | Previous Version | Text Only | Print | Product List | Glossary On
Versions: 1 2 3 4 5 6 7 8 9 10 11 12 13 14 15 16 17 18 19 20 21 22 23
000
FTUS43 KDLH 302333
TAFDLH
TAF
KDLH 302333Z 3100/3124 29012G25KT P6SM SCT070
     FM310100 28011KT P6SM SCT060
     FM310400 28008KT P6SM SKC
     FM311500 28012G17KT P6SM SCT060=

USA.gov is the U.S. government's official web portal to all federal, state and local government web resources and services.